Time;durP1;ratioP1;P1;durP2;ratioP2;P2;SDS_P1;SDS_P2;PMS_P1;PMS_P2;Temp;Humidity;BMP_temperature;BMP_pressure;BME280_temperature;BME280_humidity;BME280_pressure;Samples;Min_cycle;Max_cycle;Signal;HPM_P1;HPM_P2
2022/06/16 00:02:26;;;;;;;9.00;2.87;;;;;;;16.73;66.72;100907.56;5144868;56;1136867;-75
2022/06/16 00:07:31;;;;;;;10.17;2.93;;;;;;;16.69;66.49;100906.17;5168648;56;1136901;-74
2022/06/16 00:12:39;;;;;;;6.13;3.00;;;;;;;16.69;66.86;100900.84;5132432;57;1138990;-75
2022/06/16 00:17:45;;;;;;;7.83;3.37;;;;;;;16.66;66.58;100906.47;5131566;57;1136928;-73
2022/06/16 00:22:50;;;;;;;5.23;3.20;;;;;;;16.57;67.00;100903.33;5047505;58;1137030;-73
2022/06/16 00:27:57;;;;;;;8.27;3.40;;;;;;;16.45;67.02;100906.70;5217296;56;1134831;-74
2022/06/16 00:33:03;;;;;;;5.10;3.17;;;;;;;16.33;67.96;100898.53;5251040;55;1134976;-73
2022/06/16 00:38:09;;;;;;;9.77;3.47;;;;;;;16.34;68.33;100894.87;5246530;55;21159;-74
2022/06/16 00:43:15;;;;;;;10.58;3.36;;;;;;;16.29;68.25;100893.98;5208110;55;1134717;-74
2022/06/16 00:48:34;;;;;;;2.83;2.50;;;;;;;16.21;68.46;100897.02;5228741;56;1141012;-73
2022/06/16 00:53:42;;;;;;;6.57;3.20;;;;;;;16.12;69.69;100884.06;5228723;56;1138963;-74
2022/06/16 00:58:52;;;;;;;12.13;3.80;;;;;;;16.08;69.70;100876.00;5228710;55;1139042;-74
2022/06/16 01:09:27;;;;;;;10.93;3.73;;;;;;;15.79;69.35;100868.92;5142592;56;1138867;-74
2022/06/16 01:14:52;;;;;;;13.37;4.03;;;;;;;15.76;69.73;100870.53;5142779;56;1141135;-73
2022/06/16 01:20:05;;;;;;;8.37;3.63;;;;;;;15.71;70.05;100876.81;5141377;56;1141084;-73
2022/06/16 01:25:50;;;;;;;9.57;3.60;;;;;;;15.73;70.75;100862.84;5142643;57;1139072;-74
2022/06/16 01:31:20;;;;;;;6.77;3.07;;;;;;;15.80;70.75;100865.27;5129416;57;1139268;-73
2022/06/16 01:36:36;;;;;;;5.80;3.20;;;;;;;15.87;70.28;100868.22;5192570;56;1139060;-75
2022/06/16 01:41:56;;;;;;;5.73;3.10;;;;;;;15.83;70.53;100862.32;5228392;55;1137243;-74
2022/06/16 01:47:06;;;;;;;7.66;2.84;;;;;;;15.83;70.63;100864.98;5228739;55;1136899;-73
2022/06/16 01:52:23;;;;;;;9.00;3.37;;;;;;;15.79;70.90;100862.75;5228276;55;1137130;-73
2022/06/16 01:57:37;;;;;;;9.10;3.67;;;;;;;15.66;70.49;100867.06;5218814;56;1137087;-73
2022/06/16 02:02:44;;;;;;;5.10;3.33;;;;;;;15.55;71.27;100861.02;5219667;56;1136909;-73
2022/06/16 02:08:03;;;;;;;7.33;3.17;;;;;;;15.52;71.57;100862.14;5218653;56;1137079;-73
2022/06/16 02:13:20;;;;;;;3.17;2.80;;;;;;;15.47;71.56;100866.55;5117296;57;1137379;-74
2022/06/16 02:18:37;;;;;;;3.50;2.73;;;;;;;15.40;71.48;100863.28;5130125;57;1134965;-73
2022/06/16 02:23:45;;;;;;;7.85;4.00;;;;;;;15.23;71.40;100866.66;5130878;57;1138962;-72
2022/06/16 02:28:56;;;;;;;10.53;4.65;;;;;;;15.08;72.39;100856.41;5036024;58;1138969;-72
2022/06/16 02:34:34;;;;;;;20.43;6.57;;;;;;;15.17;73.18;100854.72;5034077;58;1141144;-72
2022/06/16 02:40:22;;;;;;;10.63;5.47;;;;;;;15.06;72.68;100855.71;5195409;57;1141367;-72
2022/06/16 02:45:44;;;;;;;11.57;4.27;;;;;;;14.96;72.57;100850.03;5211680;56;1140991;-74
2022/06/16 02:51:20;;;;;;;7.90;3.63;;;;;;;14.71;72.63;100850.89;5228046;56;1141346;-72
2022/06/16 02:57:11;;;;;;;4.80;3.37;;;;;;;14.59;73.28;100841.84;5182873;56;1138922;-73
2022/06/16 03:02:21;;;;;;;5.90;3.40;;;;;;;14.62;74.07;100834.91;5227428;56;1136869;-74
2022/06/16 03:07:37;;;;;;;6.07;3.73;;;;;;;14.66;74.30;100829.68;5239862;55;1136947;-73
2022/06/16 03:12:48;;;;;;;5.23;3.50;;;;;;;14.56;74.45;100831.45;5228340;55;1136265;-72
2022/06/16 03:17:55;;;;;;;7.43;3.60;;;;;;;14.62;75.08;100830.92;5241335;55;1136860;-74
2022/06/16 03:23:00;;;;;;;7.40;3.60;;;;;;;14.61;75.75;100824.75;5241990;55;1137125;-74
2022/06/16 03:28:08;;;;;;;8.50;3.43;;;;;;;14.67;75.92;100822.02;5242413;55;1136944;-74
2022/06/16 03:33:15;;;;;;;7.67;3.53;;;;;;;14.74;76.29;100823.16;5208431;55;1136865;-72
2022/06/16 03:43:31;;;;;;;9.80;4.33;;;;;;;14.93;77.30;100808.53;5180240;56;1137214;-73
2022/06/16 03:48:39;;;;;;;23.03;4.80;;;;;;;14.96;78.13;100804.27;5241671;55;1134878;-74
2022/06/16 03:53:48;;;;;;;14.57;3.60;;;;;;;15.01;78.18;100799.83;5216757;55;1136952;-74
2022/06/16 03:58:56;;;;;;;5.60;4.10;;;;;;;15.08;78.27;100791.15;5242842;55;1141050;-74
2022/06/16 04:04:03;;;;;;;9.27;4.20;;;;;;;15.21;79.08;100786.85;5243020;55;1149268;-74
2022/06/16 04:09:22;;;;;;;6.20;4.17;;;;;;;15.29;78.95;100784.79;5242475;55;1139013;-75
2022/06/16 04:14:33;;;;;;;9.40;3.97;;;;;;;15.33;78.97;100784.38;5242599;55;1139375;-74
2022/06/16 04:25:15;;;;;;;5.87;3.10;;;;;;;15.52;79.08;100780.83;5242093;55;1141026;-74
2022/06/16 04:30:22;;;;;;;6.33;3.40;;;;;;;15.67;79.08;100779.91;5240807;55;1138922;-73
2022/06/16 04:35:29;;;;;;;6.03;3.42;;;;;;;15.83;78.73;100782.80;5201566;55;1138978;-73
2022/06/16 04:40:36;;;;;;;13.90;5.57;;;;;;;15.97;78.46;100780.98;5241990;55;1139147;-73
2022/06/16 04:45:44;;;;;;;11.14;4.96;;;;;;;16.05;78.23;100778.41;5241638;55;1141022;-72
2022/06/16 04:50:52;;;;;;;7.10;3.30;;;;;;;16.12;77.87;100781.33;5193729;56;1141053;-73
2022/06/16 04:56:05;;;;;;;10.57;3.97;;;;;;;16.16;77.86;100774.22;5235758;55;1139219;-73
2022/06/16 05:01:29;;;;;;;15.10;4.13;;;;;;;16.22;77.76;100767.43;5233531;55;1140932;-75
2022/06/16 05:06:56;;;;;;;24.77;4.50;;;;;;;16.27;77.50;100757.66;5015363;58;1141103;-73
2022/06/16 05:12:04;;;;;;;9.37;3.03;;;;;;;16.30;77.03;100756.86;5110287;56;1141007;-73
2022/06/16 05:17:28;;;;;;;9.17;3.77;;;;;;;16.37;76.79;100741.07;5203157;55;1139115;-75
2022/06/16 05:22:43;;;;;;;7.40;3.00;;;;;;;16.51;77.12;100736.54;5132205;55;1137029;-74
2022/06/16 05:27:55;;;;;;;5.67;3.00;;;;;;;16.62;76.87;100739.01;5226186;56;1136815;-74
2022/06/16 05:33:19;;;;;;;6.50;2.93;;;;;;;16.76;76.75;100747.85;5191285;56;1136983;-74
2022/06/16 05:38:30;;;;;;;5.80;3.00;;;;;;;16.88;76.11;100745.28;5187790;56;1136734;-74
2022/06/16 05:43:59;;;;;;;4.67;3.07;;;;;;;16.96;75.94;100737.81;5172485;56;1136918;-74
2022/06/16 05:49:18;;;;;;;5.28;2.87;;;;;;;17.05;74.96;100737.39;5189873;56;1138962;-75
2022/06/16 05:54:26;;;;;;;6.57;3.13;;;;;;;17.14;75.29;100741.30;5089470;57;1139525;-74
2022/06/16 05:59:32;;;;;;;16.95;3.02;;;;;;;17.25;74.84;100739.39;5173174;56;1138846;-74
2022/06/16 06:04:44;;;;;;;7.43;3.00;;;;;;;17.36;74.68;100737.28;5194236;56;1141117;-75
2022/06/16 06:26:56;;;;;;;4.90;2.77;;;;;;;17.92;73.32;100730.08;5211401;56;1139263;-74
2022/06/16 06:32:02;;;;;;;4.37;2.67;;;;;;;18.16;72.61;100737.38;5203826;55;1139228;-74
2022/06/16 06:37:12;;;;;;;6.63;3.33;;;;;;;18.32;72.07;100737.08;5198864;56;1139096;-74
2022/06/16 06:42:20;;;;;;;15.67;3.30;;;;;;;18.56;71.92;100743.81;5172178;55;1138955;-74
2022/06/16 06:47:30;;;;;;;4.90;2.37;;;;;;;18.76;71.61;100743.88;5242663;55;1141094;-74
2022/06/16 06:52:38;;;;;;;4.90;2.93;;;;;;;18.91;71.46;100736.84;5222038;55;1139048;-75
2022/06/16 06:57:47;;;;;;;7.47;3.08;;;;;;;19.14;70.89;100746.38;5156394;56;1138954;-74
2022/06/16 07:02:58;;;;;;;9.68;2.83;;;;;;;19.36;71.08;100750.72;5156626;56;1137423;-76
2022/06/16 07:08:04;;;;;;;6.85;3.27;;;;;;;19.44;69.72;100748.01;5156233;56;1136848;-73
2022/06/16 07:13:10;;;;;;;5.58;2.72;;;;;;;19.40;68.40;100748.04;5128554;56;1136918;-75
2022/06/16 07:18:19;;;;;;;5.53;3.10;;;;;;;19.56;69.47;100747.50;5152018;56;1136868;-76
2022/06/16 07:23:26;;;;;;;6.85;2.85;;;;;;;19.77;68.71;100751.48;5151501;56;1136895;-76
2022/06/16 07:28:33;;;;;;;8.78;3.95;;;;;;;20.09;69.88;100743.80;5182096;56;1136990;-74
2022/06/16 07:33:41;;;;;;;9.38;2.95;;;;;;;20.54;69.72;100747.11;5203007;55;1137149;-75
2022/06/16 07:38:50;;;;;;;6.08;3.02;;;;;;;20.94;68.03;100740.58;5181409;55;1136945;-73
2022/06/16 07:44:04;;;;;;;5.85;3.33;;;;;;;21.30;67.71;100744.84;5188755;56;1136870;-73
2022/06/16 07:49:10;;;;;;;7.28;2.45;;;;;;;21.56;65.99;100745.73;5221805;55;1137128;-75
2022/06/16 07:54:18;;;;;;;11.28;3.00;;;;;;;21.79;65.29;100735.73;5217640;55;1136837;-76
2022/06/16 07:59:27;;;;;;;9.75;2.90;;;;;;;21.84;63.49;100729.80;5210802;55;1138987;-74
2022/06/16 08:04:33;;;;;;;7.70;4.95;;;;;;;;;;5226433;56;1134665;-74
2022/06/16 08:09:43;;;;;;;7.78;3.98;;;;;;;22.10;63.21;100728.30;5248562;56;21080;-75
2022/06/16 08:14:57;;;;;;;7.07;2.60;;;;;;;22.31;60.89;100731.52;5231852;55;1134727;-75
2022/06/16 08:20:09;;;;;;;11.78;2.70;;;;;;;22.56;62.39;100729.84;5192736;55;1139022;-74
2022/06/16 08:25:20;;;;;;;6.53;2.77;;;;;;;22.85;62.24;100727.04;5132946;56;1141159;-73
2022/06/16 08:30:27;;;;;;;4.70;2.47;;;;;;;22.96;60.77;100722.46;5193220;55;1138932;-75
2022/06/16 08:35:33;;;;;;;6.40;2.87;;;;;;;23.13;59.81;100723.02;5228230;55;1139249;-75
2022/06/16 08:40:49;;;;;;;5.03;2.37;;;;;;;23.28;59.93;100726.97;5219143;56;1138943;-73
2022/06/16 08:46:06;;;;;;;8.95;2.87;;;;;;;23.42;57.96;100728.20;5305969;55;21499;-73
2022/06/16 08:51:52;;;;;;;7.08;2.27;;;;;;;23.52;58.06;100737.36;5300614;55;1134890;-76
2022/06/16 08:57:16;;;;;;;8.60;2.58;;;;;;;23.65;59.44;100739.30;5219251;56;1138930;-74
2022/06/16 09:02:51;;;;;;;4.30;2.27;;;;;;;23.98;58.37;100743.53;5228028;55;1138835;-73
2022/06/16 09:08:27;;;;;;;3.83;2.25;;;;;;;24.10;58.45;100740.05;5237425;55;1139155;-75
2022/06/16 09:14:00;;;;;;;4.45;2.12;;;;;;;24.24;56.99;100741.48;5253344;55;1137085;-72
2022/06/16 09:19:37;;;;;;;7.64;2.70;;;;;;;24.39;53.90;100734.04;5244100;55;1136879;-74
2022/06/16 09:25:09;;;;;;;7.67;2.33;;;;;;;24.48;55.08;100730.94;5218723;56;1134755;-73
2022/06/16 09:30:19;;;;;;;5.60;2.30;;;;;;;24.56;54.62;100727.22;5218536;56;1138988;-73
2022/06/16 09:35:56;;;;;;;8.05;2.42;;;;;;;24.74;53.90;100718.52;5236500;55;1139076;-73
2022/06/16 09:46:57;;;;;;;4.95;2.45;;;;;;;25.24;54.64;100719.77;5304409;55;1138977;-74
2022/06/16 09:52:14;;;;;;;3.27;1.87;;;;;;;25.49;53.87;100728.09;5299110;55;1138958;-72
2022/06/16 09:57:43;;;;;;;4.17;2.15;;;;;;;25.73;52.96;100718.46;5251746;55;1138916;-73
2022/06/16 10:02:52;;;;;;;4.05;2.02;;;;;;;25.79;51.15;100718.98;5245424;55;1139134;-74
2022/06/16 10:08:09;;;;;;;5.22;3.27;;;;;;;25.65;51.85;100710.06;5251193;55;1138967;-75
2022/06/16 10:13:34;;;;;;;6.15;2.50;;;;;;;26.13;51.08;100708.28;5251273;55;1139028;-73
2022/06/16 10:18:41;;;;;;;7.83;2.40;;;;;;;26.45;51.70;100707.83;5252091;55;1136930;-75
2022/06/16 10:23:53;;;;;;;2.00;1.90;;;;;;;26.71;51.58;100713.09;5251415;55;1136874;-74
2022/06/16 10:29:10;;;;;;;3.05;2.17;;;;;;;26.73;49.37;100707.45;5253139;55;1136905;-75
2022/06/16 10:34:32;;;;;;;6.08;2.35;;;;;;;26.80;50.54;100708.22;5259130;55;1136876;-74
2022/06/16 10:39:54;;;;;;;4.50;1.70;;;;;;;26.78;48.48;100713.03;5218682;56;1137100;-72
2022/06/16 10:45:09;;;;;;;5.15;1.98;;;;;;;26.44;45.37;100711.59;5260125;55;1136931;-73
2022/06/16 10:50:23;;;;;;;4.45;1.70;;;;;;;26.53;47.35;100721.98;5230274;55;1139010;-74
2022/06/16 10:55:49;;;;;;;7.90;2.33;;;;;;;26.76;46.35;100722.75;5229262;55;1138893;-72
2022/06/16 11:01:17;;;;;;;5.17;2.25;;;;;;;26.96;46.55;100721.28;5247150;55;1138923;-74
2022/06/16 11:06:25;;;;;;;2.80;1.85;;;;;;;27.21;46.19;100725.33;5234741;55;1138858;-74
2022/06/16 11:11:58;;;;;;;3.90;1.85;;;;;;;27.35;45.32;100725.51;5218547;56;1138981;-75
2022/06/16 11:17:34;;;;;;;4.70;1.87;;;;;;;27.21;43.08;100732.95;5218490;56;1138979;-75
2022/06/16 11:22:55;;;;;;;3.62;1.95;;;;;;;27.03;44.70;100728.86;5210911;56;1138938;-73
2022/06/16 11:28:12;;;;;;;8.50;1.97;;;;;;;26.86;44.20;100727.70;5219038;55;1139196;-73
2022/06/16 11:39:37;;;;;;;3.05;2.05;;;;;;;27.10;45.08;100724.19;5036087;58;1136979;-73
2022/06/16 11:45:06;;;;;;;3.67;1.98;;;;;;;27.13;45.08;100728.34;5248867;56;21581;-74
2022/06/16 11:50:54;;;;;;;4.15;2.27;;;;;;;26.84;45.04;100725.73;5229531;56;1132706;-73
2022/06/16 11:56:04;;;;;;;3.92;2.10;;;;;;;26.45;44.92;100721.39;5148663;56;1139085;-74
2022/06/16 12:01:21;;;;;;;7.15;1.82;;;;;;;26.27;45.19;100724.82;5227581;56;1139174;-75
2022/06/16 12:06:52;;;;;;;12.58;2.10;;;;;;;26.47;46.50;100717.41;5228861;56;1139003;-73
2022/06/16 12:12:27;;;;;;;1.60;1.50;;;;;;;26.57;46.21;100719.67;5228883;56;1141070;-74
2022/06/16 12:18:03;;;;;;;3.65;2.05;;;;;;;26.64;46.14;100715.02;5226746;56;1139207;-73
2022/06/16 12:23:20;;;;;;;9.73;2.35;;;;;;;26.93;46.39;100721.19;5226376;56;1138991;-75
2022/06/16 12:28:42;;;;;;;3.17;1.80;;;;;;;27.15;44.67;100719.45;5108931;57;1139161;-73
2022/06/16 12:33:58;;;;;;;3.05;1.70;;;;;;;27.16;45.12;100720.59;5124694;57;1139047;-74
2022/06/16 12:39:27;;;;;;;7.30;1.67;;;;;;;27.10;43.92;100719.28;5163250;57;1136935;-73
2022/06/16 12:44:48;;;;;;;11.78;2.00;;;;;;;27.35;45.42;100714.64;5163183;57;1137323;-72
2022/06/16 12:50:13;;;;;;;6.75;1.80;;;;;;;27.76;44.78;100716.77;5171021;56;1139182;-74
2022/06/16 12:55:45;;;;;;;5.30;1.62;;;;;;;27.77;40.78;100731.19;5242370;56;1136928;-75
2022/06/16 13:00:55;;;;;;;5.17;1.60;;;;;;;27.65;41.57;100721.05;5242773;56;1138971;-74
2022/06/16 13:06:01;;;;;;;1.80;1.30;;;;;;;27.70;40.20;100736.69;5241267;56;1138974;-73
2022/06/16 13:11:12;;;;;;;4.97;1.42;;;;;;;27.53;39.02;100720.11;5242293;56;1138991;-75
2022/06/16 13:16:26;;;;;;;2.75;1.35;;;;;;;27.65;40.53;100717.52;5180573;56;1139213;-74
2022/06/16 13:21:39;;;;;;;7.17;1.60;;;;;;;27.77;40.12;100725.75;5159474;56;1139036;-74
2022/06/16 13:27:09;;;;;;;3.95;1.55;;;;;;;27.77;41.43;100725.75;5173014;56;1139219;-72
2022/06/16 13:32:46;;;;;;;2.15;1.57;;;;;;;27.81;40.16;100709.27;5205105;55;1138979;-73
2022/06/16 13:38:09;;;;;;;2.27;1.50;;;;;;;27.66;40.35;100717.80;5117276;57;1138984;-74
2022/06/16 13:43:20;;;;;;;1.85;1.30;;;;;;;27.60;41.06;100721.44;5165940;56;1138980;-74
2022/06/16 13:48:53;;;;;;;2.10;1.60;;;;;;;27.27;40.82;100719.02;5228549;56;1138999;-73
2022/06/16 13:54:00;;;;;;;3.00;2.02;;;;;;;27.14;42.41;100711.83;5088896;57;1139171;-74
2022/06/16 13:59:25;;;;;;;2.80;1.67;;;;;;;27.15;42.61;100714.86;5229053;56;1139011;-75
2022/06/16 14:04:32;;;;;;;2.17;1.75;;;;;;;27.10;41.35;100722.00;5229074;56;1136975;-75
2022/06/16 14:10:03;;;;;;;3.77;1.55;;;;;;;26.94;41.45;100715.23;5229281;55;1136947;-74
2022/06/16 14:15:10;;;;;;;2.87;1.60;;;;;;;27.12;42.34;100704.95;5229111;56;1136865;-74
2022/06/16 14:20:23;;;;;;;1.75;1.10;;;;;;;27.12;42.34;100704.95;5229082;56;1136890;-73
2022/06/16 14:25:36;;;;;;;1.82;1.62;;;;;;;27.11;41.58;100704.66;5255190;55;1136878;-73
2022/06/16 14:30:46;;;;;;;5.15;1.90;;;;;;;27.06;41.54;100702.59;5262848;55;1136962;-74
2022/06/16 14:36:17;;;;;;;6.83;1.60;;;;;;;27.02;42.47;100709.55;5192834;56;1135021;-74
2022/06/16 14:41:39;;;;;;;5.03;1.65;;;;;;;27.07;41.68;100705.62;5169739;56;1139220;-74
2022/06/16 14:47:15;;;;;;;3.00;1.40;;;;;;;26.85;40.50;100706.52;5211646;56;1138955;-73
2022/06/16 14:52:24;;;;;;;1.25;1.10;;;;;;;26.80;38.53;100700.08;5196498;56;1138852;-74
2022/06/16 14:57:31;;;;;;;8.60;1.52;;;;;;;26.81;40.41;100698.50;5028904;57;1139112;-75
2022/06/16 15:02:44;;;;;;;4.70;1.67;;;;;;;26.95;39.73;100709.59;5080137;57;1139011;-73
2022/06/16 15:08:01;;;;;;;7.65;1.57;;;;;;;26.91;40.35;100705.61;5045723;58;1139078;-75
2022/06/16 15:13:13;;;;;;;6.70;1.27;;;;;;;26.84;40.99;100708.09;5220460;56;1138944;-74
2022/06/16 15:18:19;;;;;;;5.33;1.47;;;;;;;27.08;41.57;100704.56;5187021;56;1139048;-75
2022/06/16 15:23:30;;;;;;;4.10;1.80;;;;;;;27.27;41.92;100708.98;5228791;56;1139223;-73
2022/06/16 15:28:41;;;;;;;1.87;1.67;;;;;;;27.45;41.03;100723.66;5180414;56;1138879;-74
2022/06/16 15:39:33;;;;;;;1.65;1.32;;;;;;;27.20;39.25;100729.09;5174555;56;1139011;-75
2022/06/16 15:44:58;;;;;;;2.70;1.25;;;;;;;26.96;40.87;100736.20;5159862;56;1136940;-73
2022/06/16 15:50:12;;;;;;;5.55;1.42;;;;;;;26.93;40.33;100733.41;5167285;56;1136856;-73
2022/06/16 15:55:25;;;;;;;2.05;1.20;;;;;;;26.85;41.00;100741.80;5151725;57;1136870;-72
2022/06/16 16:00:34;;;;;;;3.30;1.60;;;;;;;27.00;41.27;100742.03;5121585;57;1136784;-71
2022/06/16 16:05:46;;;;;;;7.58;1.82;;;;;;;27.03;41.01;100745.14;5116975;57;1136862;-73
2022/06/16 16:10:58;;;;;;;4.17;1.62;;;;;;;26.95;41.27;100755.73;5210133;56;1136802;-72
2022/06/16 16:16:15;;;;;;;8.23;1.05;;;;;;;26.93;41.66;100751.05;5215900;56;1136927;-73
2022/06/16 16:21:21;;;;;;;7.58;2.70;;;;;;;26.65;40.98;100762.80;5220483;56;1138986;-73
2022/06/16 16:26:27;;;;;;;6.87;2.90;;;;;;;26.32;41.82;100758.91;5223475;56;1139221;-71
2022/06/16 16:31:56;;;;;;;5.03;1.90;;;;;;;26.21;42.55;100768.53;5066438;57;1139076;-70
2022/06/16 16:37:25;;;;;;;2.40;1.30;;;;;;;26.22;42.82;100760.71;5064612;56;1138983;-71
2022/06/16 16:48:30;;;;;;;7.62;3.60;;;;;;;26.37;42.33;100766.41;5204078;56;1138895;-72
2022/06/16 16:53:48;;;;;;;5.20;1.37;;;;;;;26.43;42.62;100774.50;5235891;55;1138936;-73
2022/06/16 16:58:57;;;;;;;1.35;1.00;;;;;;;26.02;41.06;100784.34;5232503;55;1138908;-75
2022/06/16 17:04:29;;;;;;;3.65;1.57;;;;;;;26.02;41.06;100784.34;5111960;57;1139040;-76
2022/06/16 17:09:44;;;;;;;3.30;1.02;;;;;;;25.87;42.18;100794.61;5186090;56;1138836;-73
2022/06/16 17:14:50;;;;;;;3.25;1.10;;;;;;;25.77;42.31;100795.58;5184116;56;1139238;-73
2022/06/16 17:19:59;;;;;;;3.37;1.15;;;;;;;25.62;41.70;100799.87;5182271;56;1137193;-75
2022/06/16 17:25:09;;;;;;;2.25;1.25;;;;;;;25.43;41.36;100815.06;5170654;56;1136900;-73
2022/06/16 17:30:23;;;;;;;4.22;1.77;;;;;;;25.08;41.45;100821.70;5169769;56;1136929;-72
2022/06/16 17:35:35;;;;;;;5.42;2.10;;;;;;;24.76;40.67;100828.67;5185488;56;1136940;-76
2022/06/16 17:40:41;;;;;;;2.98;1.05;;;;;;;24.52;41.62;100836.31;5154206;56;1137466;-73
2022/06/16 17:45:47;;;;;;;3.30;2.83;;;;;;;24.36;41.21;100846.63;5191269;56;1136774;-76
2022/06/16 17:50:53;;;;;;;1.07;0.88;;;;;;;24.16;41.37;100851.90;5165374;56;1136881;-76
2022/06/16 18:01:28;;;;;;;5.55;3.35;;;;;;;24.03;42.02;100856.72;5210386;55;1140893;-74
2022/06/16 18:06:36;;;;;;;13.70;9.00;;;;;;;23.95;42.11;100860.11;5177581;56;1134098;-74
2022/06/16 18:11:43;;;;;;;87.48;68.08;;;;;;;23.74;41.96;100878.02;5192019;56;1141060;-75
2022/06/16 18:16:49;;;;;;;28.68;18.20;;;;;;;23.52;42.96;100883.67;5097761;56;1143155;-73
2022/06/16 18:21:54;;;;;;;27.80;19.90;;;;;;;23.20;44.32;100902.02;5183090;56;1143322;-76
2022/06/16 18:27:08;;;;;;;12.47;8.50;;;;;;;22.91;44.80;100908.86;5151786;56;1143121;-73
2022/06/16 18:32:14;;;;;;;34.10;20.00;;;;;;;22.67;45.59;100915.36;5183117;56;1141372;-74
2022/06/16 18:37:20;;;;;;;47.05;33.98;;;;;;;22.55;46.25;100916.88;5184500;56;1143203;-73
2022/06/16 18:42:26;;;;;;;63.38;40.05;;;;;;;22.35;46.70;100928.20;5161656;56;1143323;-72
2022/06/16 18:47:37;;;;;;;203.27;113.15;;;;;;;22.20;47.12;100927.88;5242602;55;1143148;-76
2022/06/16 18:52:43;;;;;;;167.23;109.67;;;;;;;21.89;47.71;100932.86;5211192;55;1147321;-76
2022/06/16 18:57:51;;;;;;;90.90;54.77;;;;;;;21.94;48.62;100937.70;5181737;56;1147157;-73
2022/06/16 19:02:58;;;;;;;67.95;45.08;;;;;;;22.04;48.42;100949.92;5156084;56;1142469;-74
2022/06/16 19:08:06;;;;;;;52.83;34.10;;;;;;;22.05;48.43;100956.14;5167261;56;1143250;-72
2022/06/16 19:13:31;;;;;;;60.33;39.63;;;;;;;21.99;48.79;100966.29;5042713;57;1143283;-74
2022/06/16 19:18:30;;;;;;;27.27;13.30;;;;;;;21.93;49.08;100975.08;5085978;57;1143396;-73
2022/06/16 19:23:41;;;;;;;;;;;;;;;21.95;49.45;100987.86;5203262;56;1143394;-76
2022/06/16 19:28:53;;;;;;;8.93;6.30;;;;;;;21.96;49.51;100989.03;5221640;56;976345;-74
2022/06/16 19:34:00;;;;;;;38.85;25.27;;;;;;;21.89;49.58;101000.19;5184668;56;1136977;-73
2022/06/16 19:39:09;;;;;;;36.75;27.15;;;;;;;21.62;50.16;101020.92;5157683;57;1143383;-74
2022/06/16 19:55:19;;;;;;;19.90;12.88;;;;;;;21.30;51.17;101035.41;5130697;57;1143146;-76
2022/06/16 20:00:29;;;;;;;22.85;14.65;;;;;;;21.09;51.82;101037.31;5203268;57;1141118;-73
2022/06/16 20:05:43;;;;;;;64.60;34.98;;;;;;;20.78;52.66;101045.86;5203119;57;1141250;-73
2022/06/16 20:10:54;;;;;;;14.65;8.30;;;;;;;20.75;52.78;101048.38;5213915;55;1140993;-72
2022/06/16 20:16:02;;;;;;;57.05;32.15;;;;;;;20.74;52.83;101055.27;5241530;55;1138989;-71
2022/06/16 20:21:16;;;;;;;38.63;21.97;;;;;;;20.69;52.99;101059.30;5235277;55;1141019;-74
2022/06/16 20:26:23;;;;;;;129.35;67.87;;;;;;;20.68;52.67;101059.47;5216020;56;1141001;-74
2022/06/16 20:31:32;;;;;;;83.33;49.80;;;;;;;20.58;52.83;101061.52;5194267;55;1143240;-71
2022/06/16 20:36:40;;;;;;;53.95;31.50;;;;;;;20.48;53.00;101071.59;5244252;55;1140994;-72
2022/06/16 20:47:13;;;;;;;64.92;38.50;;;;;;;20.15;53.56;101075.62;5231326;55;1139168;-73
2022/06/16 20:52:21;;;;;;;51.08;27.65;;;;;;;20.13;53.49;101071.43;5231253;55;1143071;-72
2022/06/16 21:02:51;;;;;;;222.05;118.82;;;;;;;19.99;53.02;101078.30;5217676;56;1142673;-72
2022/06/16 21:07:57;;;;;;;145.82;76.00;;;;;;;19.70;53.10;101080.61;5186870;56;1147317;-71
2022/06/16 21:13:03;;;;;;;218.05;111.68;;;;;;;19.51;53.86;101086.59;5218609;56;1145233;-73
2022/06/16 21:18:25;;;;;;;233.38;136.88;;;;;;;19.39;54.31;101087.02;5217818;56;1147450;-74
2022/06/16 21:23:34;;;;;;;111.30;64.00;;;;;;;19.36;54.76;101084.16;5216607;56;1147353;-74
2022/06/16 21:28:39;;;;;;;50.88;26.57;;;;;;;19.16;55.11;101089.43;5305586;55;1145253;-71
2022/06/16 21:33:46;;;;;;;58.42;31.55;;;;;;;18.96;55.52;101102.22;5304141;55;1143210;-73
2022/06/16 21:38:53;;;;;;;77.90;43.33;;;;;;;19.04;56.09;101105.46;5219053;56;1143137;-72
2022/06/16 21:44:02;;;;;;;35.83;21.27;;;;;;;19.18;56.30;101112.41;5252200;55;1143174;-73
2022/06/16 21:49:09;;;;;;;46.45;26.10;;;;;;;19.29;56.47;101113.45;5307706;55;1143236;-71
2022/06/16 21:54:17;;;;;;;39.50;22.25;;;;;;;19.38;56.51;101110.33;5270848;55;1143126;-73
2022/06/16 21:59:22;;;;;;;26.80;13.08;;;;;;;19.21;55.69;101119.30;5242126;55;1143215;-73
2022/06/16 22:04:35;;;;;;;82.12;49.38;;;;;;;19.00;55.80;101117.50;5242336;55;1143286;-72
2022/06/16 22:09:42;;;;;;;110.22;71.12;;;;;;;18.64;56.21;101128.84;5254804;55;1143265;-74
2022/06/16 22:20:31;;;;;;;62.88;45.75;;;;;;;18.37;56.96;101121.70;5229645;55;1143405;-72
2022/06/16 22:25:37;;;;;;;55.85;35.90;;;;;;;18.20;57.23;101124.73;5233467;55;1143379;-74
2022/06/16 22:30:43;;;;;;;46.63;32.45;;;;;;;18.11;57.34;101111.78;5219037;56;1143144;-74
2022/06/16 22:35:49;;;;;;;32.50;25.12;;;;;;;18.02;57.46;101114.55;5233767;55;1143473;-75
2022/06/16 22:40:56;;;;;;;65.92;48.00;;;;;;;17.96;57.92;101133.88;5307164;55;1143143;-75
2022/06/16 22:46:07;;;;;;;62.10;41.90;;;;;;;17.77;57.66;101127.66;5137387;56;1141280;-76
2022/06/16 22:51:21;;;;;;;92.27;61.57;;;;;;;17.49;57.81;101133.98;5126575;57;1141095;-74
2022/06/16 22:56:27;;;;;;;41.13;28.80;;;;;;;17.26;58.27;101138.05;5130142;57;1141082;-71
2022/06/16 23:01:32;;;;;;;10.00;7.73;;;;;;;17.23;58.57;101143.19;5151775;57;1140465;-74
2022/06/16 23:06:49;;;;;;;28.87;19.13;;;;;;;17.08;58.66;101139.31;5164830;56;1139143;-72
2022/06/16 23:11:55;;;;;;;13.87;10.20;;;;;;;16.85;58.75;101142.80;5216251;56;1141091;-72
2022/06/16 23:17:04;;;;;;;24.53;12.67;;;;;;;16.84;59.50;101137.11;5216231;56;1141050;-73
2022/06/16 23:22:16;;;;;;;8.90;2.80;;;;;;;16.86;58.90;101149.84;5101614;57;1141240;-71
2022/06/16 23:27:25;;;;;;;9.93;3.83;;;;;;;16.59;58.89;101143.04;5192477;56;1136891;-72
2022/06/16 23:32:31;;;;;;;11.67;4.37;;;;;;;16.41;59.42;101149.09;5130840;56;1136881;-72
2022/06/16 23:37:37;;;;;;;12.57;4.07;;;;;;;16.26;60.51;101161.18;5250103;56;1139085;-73
2022/06/16 23:42:45;;;;;;;6.23;2.53;;;;;;;16.03;61.11;101167.28;5225259;56;1136940;-74
2022/06/16 23:53:15;;;;;;;2.95;1.37;;;;;;;15.54;62.06;101168.11;5186891;56;1138948;-74
2022/06/16 23:58:26;;;;;;;2.13;1.30;;;;;;;15.41;62.35;101179.00;5238468;56;1138988;-73
